createdAt,value
2023-02-22T00:02:29.231Z,78.46
2023-02-22T00:06:31.158Z,78.84
2023-02-22T00:10:34.203Z,79.06
2023-02-22T00:14:34.649Z,79.25
2023-02-22T00:18:34.926Z,80.15
2023-02-22T00:22:38.337Z,80.49
2023-02-22T00:26:41.320Z,80.12
2023-02-22T00:30:43.827Z,79.83
2023-02-22T00:34:44.910Z,79.80
2023-02-22T00:38:45.807Z,80.12
2023-02-22T00:42:49.602Z,79.92
2023-02-22T00:46:50.054Z,80.01
2023-02-22T00:50:55.356Z,80.10
2023-02-22T00:54:57.949Z,80.04
2023-02-22T00:59:01.083Z,79.61
2023-02-22T01:03:02.699Z,79.25
2023-02-22T01:07:03.425Z,79.88
2023-02-22T01:11:04.124Z,79.75
2023-02-22T01:15:10.748Z,79.07
2023-02-22T01:19:12.657Z,78.42
2023-02-22T01:23:12.913Z,78.47
2023-02-22T01:27:14.326Z,78.54
2023-02-22T01:31:17.733Z,78.67
2023-02-22T01:35:24.021Z,78.76
2023-02-22T01:39:24.337Z,79.10
2023-02-22T01:43:29.725Z,79.84
2023-02-22T01:47:33.006Z,78.90
2023-02-22T01:51:39.491Z,78.38
2023-02-22T01:55:42.034Z,78.10
2023-02-22T01:59:51.462Z,78.39
2023-02-22T02:04:01.760Z,77.96
2023-02-22T02:08:08.965Z,77.99
2023-02-22T02:12:13.991Z,78.39
2023-02-22T02:16:17.464Z,79.27
2023-02-22T02:20:36.542Z,79.88
2023-02-22T02:25:38.304Z,80.63
2023-02-22T02:30:33.738Z,81.02
2023-02-22T02:34:51.047Z,81.11
2023-02-22T02:39:04.225Z,81.10
2023-02-22T02:43:21.377Z,81.53
2023-02-22T02:47:31.675Z,81.94
2023-02-22T02:51:43.770Z,82.23
2023-02-22T02:55:53.456Z,81.78
2023-02-22T03:00:04.092Z,81.72
2023-02-22T03:04:24.969Z,82.10
2023-02-22T03:08:44.510Z,82.22
2023-02-22T03:13:06.220Z,82.37
2023-02-22T03:17:25.018Z,82.35
2023-02-22T03:21:42.139Z,82.26
2023-02-22T03:25:55.130Z,82.87
2023-02-22T03:30:04.411Z,82.68
2023-02-22T03:34:17.376Z,82.92
2023-02-22T03:38:25.892Z,83.11
2023-02-22T03:42:41.111Z,82.96
2023-02-22T03:46:49.493Z,83.05
2023-02-22T03:50:59.836Z,83.37
2023-02-22T03:55:00.471Z,82.84
2023-02-22T03:59:12.760Z,83.08
2023-02-22T04:03:15.026Z,83.27
2023-02-22T04:07:19.884Z,83.97
2023-02-22T04:11:23.810Z,83.59
2023-02-22T04:15:27.980Z,83.68
2023-02-22T04:19:46.149Z,83.22
2023-02-22T04:23:50.335Z,83.00
2023-02-22T04:27:53.517Z,82.44
2023-02-22T04:32:25.786Z,82.36
2023-02-22T04:36:29.443Z,82.89
2023-02-22T04:40:33.742Z,82.75
2023-02-22T04:44:35.509Z,82.97
2023-02-22T04:48:55.476Z,82.76
2023-02-22T04:53:04.872Z,82.71
2023-02-22T04:57:08.758Z,82.69
2023-02-22T05:01:10.469Z,82.60
2023-02-22T05:05:16.297Z,82.71
2023-02-22T05:09:20.839Z,82.98
2023-02-22T05:13:38.520Z,83.05
2023-02-22T05:17:41.950Z,83.34
2023-02-22T05:21:50.513Z,83.50
2023-02-22T05:25:59.227Z,83.08
2023-02-22T05:30:03.876Z,82.28
2023-02-22T05:34:06.646Z,82.46
2023-02-22T05:38:16.552Z,83.18
2023-02-22T05:42:17.524Z,82.82
2023-02-22T05:46:18.640Z,82.71
2023-02-22T05:50:26.936Z,83.14
2023-02-22T05:54:34.339Z,83.41
2023-02-22T05:58:35.090Z,83.45
2023-02-22T06:02:37.263Z,83.11
2023-02-22T06:07:00.676Z,83.07
2023-02-22T06:11:05.207Z,83.77
2023-02-22T06:15:07.138Z,83.81
2023-02-22T06:19:09.899Z,85.35
2023-02-22T06:23:14.471Z,85.88
2023-02-22T06:27:20.623Z,83.88
2023-02-22T06:31:24.817Z,82.71
2023-02-22T06:35:25.614Z,82.89
2023-02-22T06:39:34.220Z,82.51
2023-02-22T06:43:40.572Z,82.63
2023-02-22T06:47:48.050Z,81.71
2023-02-22T06:51:50.281Z,81.20
2023-02-22T06:55:54.542Z,81.31
2023-02-22T06:59:58.026Z,80.92
2023-02-22T07:03:58.725Z,81.28
2023-02-22T07:08:15.222Z,80.16
2023-02-22T07:12:22.104Z,79.63
2023-02-22T07:16:30.750Z,80.00
2023-02-22T07:20:37.642Z,79.42
2023-02-22T07:24:43.289Z,79.15
2023-02-22T07:28:45.954Z,78.83
2023-02-22T07:33:14.525Z,79.41
2023-02-22T07:37:20.123Z,79.78
2023-02-22T07:41:21.264Z,78.94
2023-02-22T07:45:27.714Z,77.89
2023-02-22T07:49:31.995Z,77.53
2023-02-22T07:53:36.836Z,76.09
2023-02-22T07:57:49.054Z,75.42
2023-02-22T08:01:53.516Z,76.12
2023-02-22T08:06:03.614Z,76.16
2023-02-22T08:10:06.768Z,75.76
2023-02-22T08:14:14.438Z,76.39
2023-02-22T08:18:23.501Z,76.23
2023-02-22T08:22:31.546Z,76.94
2023-02-22T08:26:37.892Z,75.93
2023-02-22T08:30:43.844Z,76.54
2023-02-22T08:34:51.394Z,76.02
2023-02-22T08:38:58.533Z,76.02
2023-02-22T08:42:59.900Z,76.41
2023-02-22T08:47:04.534Z,74.65
2023-02-22T08:51:13.239Z,74.37
2023-02-22T08:55:17.829Z,74.99
2023-02-22T08:59:20.605Z,74.27
2023-02-22T09:03:28.472Z,74.00
2023-02-22T09:07:32.438Z,72.88
2023-02-22T09:11:45.494Z,70.88
2023-02-22T09:15:48.622Z,71.06
2023-02-22T09:19:56.661Z,69.32
2023-02-22T09:23:57.477Z,69.44
2023-02-22T09:28:02.134Z,68.44
2023-02-22T09:32:18.081Z,68.14
2023-02-22T09:36:26.138Z,68.66
2023-02-22T09:40:36.821Z,68.72
2023-02-22T09:44:54.750Z,68.50
2023-02-22T09:49:13.538Z,68.56
2023-02-22T09:53:33.285Z,68.19
2023-02-22T09:57:44.112Z,66.26
2023-02-22T10:02:01.094Z,66.20
2023-02-22T10:06:12.811Z,66.29
2023-02-22T10:10:24.339Z,66.13
2023-02-22T10:15:16.175Z,63.37
2023-02-22T10:19:54.989Z,63.92
2023-02-22T10:24:17.440Z,62.29
2023-02-22T10:28:36.231Z,62.48
2023-02-22T10:32:48.766Z,61.89
2023-02-22T10:37:06.368Z,61.17
2023-02-22T10:41:28.271Z,59.04
2023-02-22T10:45:37.834Z,57.78
2023-02-22T10:49:47.017Z,56.64
2023-02-22T10:54:25.176Z,54.95
2023-02-22T10:58:31.312Z,53.60
2023-02-22T11:02:39.559Z,50.60
2023-02-22T11:06:51.212Z,48.42
2023-02-22T11:11:07.530Z,48.17
2023-02-22T11:15:35.785Z,49.28
2023-02-22T11:19:39.407Z,45.90
2023-02-22T11:23:53.785Z,45.53
2023-02-22T11:28:00.360Z,44.18
2023-02-22T11:32:07.556Z,43.64
2023-02-22T11:36:18.108Z,42.99
2023-02-22T11:40:24.332Z,42.47
2023-02-22T11:44:34.473Z,40.79
2023-02-22T11:48:55.388Z,40.98
2023-02-22T11:53:30.402Z,41.07
2023-02-22T11:57:58.508Z,40.86
2023-02-22T12:02:33.313Z,41.61
2023-02-22T12:06:53.473Z,41.32
2023-02-22T12:11:13.516Z,42.06
2023-02-22T12:15:38.118Z,42.01
2023-02-22T12:19:48.938Z,40.55
2023-02-22T12:24:18.243Z,40.94
2023-02-22T12:28:38.061Z,40.58
2023-02-22T12:32:47.251Z,38.28
2023-02-22T12:37:01.814Z,36.85
2023-02-22T12:41:21.361Z,36.28
2023-02-22T12:45:48.237Z,34.33
2023-02-22T12:50:16.705Z,34.36
2023-02-22T12:54:38.286Z,33.49
2023-02-22T12:58:54.741Z,33.35
2023-02-22T13:03:07.874Z,34.64
2023-02-22T13:07:37.645Z,32.49
2023-02-22T13:16:35.536Z,30.95
2023-02-22T13:20:49.934Z,30.17
2023-02-22T13:25:06.920Z,31.38
2023-02-22T13:29:22.375Z,30.90
2023-02-22T13:33:56.921Z,31.09
2023-02-22T13:38:29.845Z,32.12
2023-02-22T13:43:12.498Z,32.52
2023-02-22T13:48:02.656Z,32.12
2023-02-22T13:52:14.943Z,35.35
2023-02-22T13:56:19.215Z,33.07
2023-02-22T14:00:58.289Z,32.87
2023-02-22T14:05:15.056Z,35.34
2023-02-22T14:09:50.862Z,35.89
2023-02-22T14:14:22.864Z,35.65
2023-02-22T14:18:23.491Z,34.30
2023-02-22T14:22:33.275Z,33.31
2023-02-22T14:26:38.225Z,33.28
2023-02-22T14:30:42.942Z,32.18
2023-02-22T14:34:57.188Z,33.40
2023-02-22T14:39:20.962Z,34.49
2023-02-22T14:43:27.256Z,35.13
2023-02-22T14:47:35.610Z,35.82
2023-02-22T14:51:47.242Z,36.36
2023-02-22T14:55:56.861Z,36.62
2023-02-22T15:00:22.561Z,36.36
2023-02-22T15:04:31.176Z,36.58
2023-02-22T15:08:34.743Z,38.11
2023-02-22T15:12:47.261Z,38.93
2023-02-22T15:16:56.754Z,40.16
2023-02-22T15:21:05.889Z,40.92
2023-02-22T15:25:12.366Z,42.65
2023-02-22T15:29:24.814Z,43.76
2023-02-22T15:33:38.218Z,44.12
2023-02-22T15:37:38.631Z,45.33
2023-02-22T15:41:43.398Z,45.77
2023-02-22T15:45:51.148Z,46.77
2023-02-22T15:50:25.850Z,46.46
2023-02-22T15:54:28.035Z,46.52
2023-02-22T15:58:32.373Z,47.51
2023-02-22T16:02:44.702Z,47.83
2023-02-22T16:06:48.621Z,48.71
2023-02-22T16:11:01.438Z,49.66
2023-02-22T16:15:03.092Z,51.16
2023-02-22T16:19:42.107Z,51.60
2023-02-22T16:23:52.132Z,52.38
2023-02-22T16:27:57.573Z,52.91
2023-02-22T16:31:58.344Z,53.76
2023-02-22T16:36:02.082Z,54.94
2023-02-22T16:40:02.639Z,56.51
2023-02-22T16:44:04.085Z,56.65
2023-02-22T16:48:14.674Z,57.33
2023-02-22T16:52:18.004Z,57.66
2023-02-22T16:56:23.601Z,58.33
2023-02-22T17:00:31.812Z,59.59
2023-02-22T17:04:32.439Z,60.17
2023-02-22T17:08:36.044Z,59.95
2023-02-22T17:12:36.775Z,60.82
2023-02-22T17:16:39.141Z,61.21
2023-02-22T17:20:45.203Z,61.86
2023-02-22T17:24:53.921Z,61.86
2023-02-22T17:28:54.318Z,62.42
2023-02-22T17:32:56.224Z,63.09
2023-02-22T17:36:57.180Z,64.26
2023-02-22T17:41:05.084Z,64.38
2023-02-22T17:45:06.036Z,65.33
2023-02-22T17:49:08.675Z,65.68
2023-02-22T17:53:11.391Z,66.30
2023-02-22T17:57:15.924Z,67.12
2023-02-22T18:01:27.284Z,67.72
2023-02-22T18:05:29.860Z,67.74
2023-02-22T18:09:31.613Z,68.00
2023-02-22T18:13:36.738Z,68.60
2023-02-22T18:17:39.197Z,68.69
2023-02-22T18:21:41.290Z,69.40
2023-02-22T18:25:43.730Z,69.53
2023-02-22T18:29:49.380Z,69.68
2023-02-22T18:33:53.621Z,69.97
2023-02-22T18:37:54.129Z,70.47
2023-02-22T18:41:54.628Z,70.81
2023-02-22T18:45:57.812Z,71.71
2023-02-22T18:49:58.255Z,73.03
2023-02-22T18:54:02.832Z,73.07
2023-02-22T18:58:11.264Z,73.18
2023-02-22T19:02:17.476Z,73.11
2023-02-22T19:06:19.996Z,73.03
2023-02-22T19:10:23.063Z,72.62
2023-02-22T19:14:24.512Z,72.23
2023-02-22T19:18:29.193Z,71.74
2023-02-22T19:22:33.036Z,72.45
2023-02-22T19:26:34.946Z,72.24
2023-02-22T19:30:35.661Z,72.20
2023-02-22T19:34:44.063Z,71.79
2023-02-22T19:38:46.576Z,72.38
2023-02-22T19:42:49.086Z,72.61
2023-02-22T19:46:49.739Z,73.47
2023-02-22T19:50:58.884Z,73.41
2023-02-22T19:55:00.428Z,72.64
2023-02-22T19:59:09.498Z,72.03
2023-02-22T20:03:13.589Z,73.18
2023-02-22T20:07:16.739Z,72.98
2023-02-22T20:11:18.359Z,73.37
2023-02-22T20:15:19.506Z,72.94
2023-02-22T20:19:23.174Z,73.46
2023-02-22T20:23:26.580Z,73.87
2023-02-22T20:27:28.072Z,74.19
2023-02-22T20:31:31.229Z,74.34
2023-02-22T20:35:32.015Z,73.83
2023-02-22T20:39:35.437Z,74.20
2023-02-22T20:43:38.334Z,73.98
2023-02-22T20:47:39.072Z,74.02
2023-02-22T20:51:44.888Z,74.66
2023-02-22T20:55:59.267Z,75.21
2023-02-22T21:00:00.992Z,75.05
2023-02-22T21:04:03.797Z,74.67
2023-02-22T21:08:04.463Z,75.73
2023-02-22T21:12:13.737Z,76.06
2023-02-22T21:16:21.407Z,75.91
2023-02-22T21:20:22.657Z,76.29
2023-02-22T21:24:24.030Z,76.34
2023-02-22T21:28:32.383Z,76.22
2023-02-22T21:32:45.537Z,75.66
2023-02-22T21:36:47.142Z,75.76
2023-02-22T21:40:50.807Z,75.56
2023-02-22T21:44:56.520Z,75.59
2023-02-22T21:48:58.808Z,75.63
2023-02-22T21:53:01.031Z,75.60
2023-02-22T21:57:02.796Z,75.86
2023-02-22T22:01:17.697Z,75.80
2023-02-22T22:05:32.810Z,75.88
2023-02-22T22:09:38.251Z,75.79
2023-02-22T22:13:42.467Z,76.21
2023-02-22T22:17:46.391Z,76.07
2023-02-22T22:21:49.978Z,76.04
2023-02-22T22:25:51.448Z,75.42
2023-02-22T22:29:51.810Z,75.36
2023-02-22T22:33:56.491Z,75.31
2023-02-22T22:37:59.833Z,75.70
2023-02-22T22:42:00.393Z,76.21
2023-02-22T22:46:03.500Z,76.67
2023-02-22T22:50:07.936Z,76.51
2023-02-22T22:54:09.527Z,76.22
2023-02-22T22:58:10.128Z,76.33
2023-02-22T23:02:13.535Z,76.18
2023-02-22T23:06:17.550Z,76.05
2023-02-22T23:10:22.696Z,76.09
2023-02-22T23:14:31.358Z,76.07
2023-02-22T23:18:34.149Z,76.79
2023-02-22T23:22:38.008Z,76.76
2023-02-22T23:26:42.110Z,77.75
2023-02-22T23:30:42.808Z,78.69
2023-02-22T23:34:44.579Z,79.00
2023-02-22T23:38:49.627Z,79.28
2023-02-22T23:42:53.995Z,78.28
2023-02-22T23:46:55.837Z,79.53
2023-02-22T23:50:59.287Z,79.60
2023-02-22T23:55:05.842Z,79.96
2023-02-22T23:59:11.367Z,79.78
